sensor_id;sensor_type;location;lat;lon;timestamp;P1;durP1;ratioP1;P2;durP2;ratioP2
67053;SDS011;53960;51.826;5.850;2023-01-09T00:02:18;5.63;;;0.88;;
67053;SDS011;53960;51.826;5.850;2023-01-09T00:04:43;4.23;;;0.97;;
67053;SDS011;53960;51.826;5.850;2023-01-09T00:07:09;6.33;;;0.93;;
67053;SDS011;53960;51.826;5.850;2023-01-09T00:09:34;4.73;;;1.10;;
67053;SDS011;53960;51.826;5.850;2023-01-09T00:11:59;3.93;;;0.90;;
67053;SDS011;53960;51.826;5.850;2023-01-09T00:14:26;5.70;;;0.90;;
67053;SDS011;53960;51.826;5.850;2023-01-09T00:16:53;5.47;;;0.93;;
67053;SDS011;53960;51.826;5.850;2023-01-09T00:19:18;4.53;;;0.80;;
67053;SDS011;53960;51.826;5.850;2023-01-09T00:21:44;4.07;;;0.80;;
67053;SDS011;53960;51.826;5.850;2023-01-09T00:24:09;4.03;;;0.70;;
67053;SDS011;53960;51.826;5.850;2023-01-09T00:26:34;3.77;;;0.70;;
67053;SDS011;53960;51.826;5.850;2023-01-09T00:29:00;3.63;;;0.87;;
67053;SDS011;53960;51.826;5.850;2023-01-09T00:31:25;3.77;;;0.70;;
67053;SDS011;53960;51.826;5.850;2023-01-09T00:33:55;3.97;;;0.80;;
67053;SDS011;53960;51.826;5.850;2023-01-09T00:36:23;3.95;;;0.77;;
67053;SDS011;53960;51.826;5.850;2023-01-09T00:38:49;2.70;;;0.75;;
67053;SDS011;53960;51.826;5.850;2023-01-09T00:42:00;3.70;;;1.00;;
67053;SDS011;53960;51.826;5.850;2023-01-09T00:44:09;4.43;;;1.00;;
67053;SDS011;53960;51.826;5.850;2023-01-09T00:46:40;3.25;;;0.80;;
67053;SDS011;53960;51.826;5.850;2023-01-09T00:49:09;4.68;;;0.90;;
67053;SDS011;53960;51.826;5.850;2023-01-09T00:51:36;4.53;;;1.02;;
67053;SDS011;53960;51.826;5.850;2023-01-09T00:54:05;4.40;;;0.80;;
67053;SDS011;53960;51.826;5.850;2023-01-09T00:56:31;3.90;;;0.90;;
67053;SDS011;53960;51.826;5.850;2023-01-09T00:58:58;2.90;;;0.60;;
67053;SDS011;53960;51.826;5.850;2023-01-09T01:01:23;3.53;;;0.80;;
67053;SDS011;53960;51.826;5.850;2023-01-09T01:03:48;5.70;;;0.87;;
67053;SDS011;53960;51.826;5.850;2023-01-09T01:06:14;3.80;;;0.90;;
67053;SDS011;53960;51.826;5.850;2023-01-09T01:08:58;3.83;;;0.80;;
67053;SDS011;53960;51.826;5.850;2023-01-09T01:11:23;5.17;;;1.20;;
67053;SDS011;53960;51.826;5.850;2023-01-09T01:13:49;5.25;;;1.45;;
67053;SDS011;53960;51.826;5.850;2023-01-09T01:16:15;5.10;;;1.20;;
67053;SDS011;53960;51.826;5.850;2023-01-09T01:18:42;4.75;;;1.35;;
67053;SDS011;53960;51.826;5.850;2023-01-09T01:21:08;4.53;;;1.00;;
67053;SDS011;53960;51.826;5.850;2023-01-09T01:23:35;4.25;;;1.02;;
67053;SDS011;53960;51.826;5.850;2023-01-09T01:26:04;4.78;;;1.02;;
67053;SDS011;53960;51.826;5.850;2023-01-09T01:28:34;5.23;;;1.00;;
67053;SDS011;53960;51.826;5.850;2023-01-09T01:31:00;3.92;;;0.98;;
67053;SDS011;53960;51.826;5.850;2023-01-09T01:33:25;4.47;;;1.00;;
67053;SDS011;53960;51.826;5.850;2023-01-09T01:35:58;4.03;;;1.00;;
67053;SDS011;53960;51.826;5.850;2023-01-09T01:38:27;6.30;;;1.00;;
67053;SDS011;53960;51.826;5.850;2023-01-09T01:40:53;5.53;;;1.10;;
67053;SDS011;53960;51.826;5.850;2023-01-09T01:43:19;5.97;;;1.05;;
67053;SDS011;53960;51.826;5.850;2023-01-09T01:45:44;5.13;;;1.10;;
67053;SDS011;53960;51.826;5.850;2023-01-09T01:48:11;5.90;;;1.17;;
67053;SDS011;53960;51.826;5.850;2023-01-09T01:50:55;5.95;;;1.35;;
67053;SDS011;53960;51.826;5.850;2023-01-09T01:53:47;5.68;;;1.10;;
67053;SDS011;53960;51.826;5.850;2023-01-09T01:56:22;4.95;;;1.00;;
67053;SDS011;53960;51.826;5.850;2023-01-09T01:59:03;4.43;;;1.48;;
67053;SDS011;53960;51.826;5.850;2023-01-09T02:01:30;5.97;;;1.20;;
67053;SDS011;53960;51.826;5.850;2023-01-09T02:03:57;5.72;;;1.20;;
67053;SDS011;53960;51.826;5.850;2023-01-09T02:06:24;6.75;;;1.10;;
67053;SDS011;53960;51.826;5.850;2023-01-09T02:08:50;5.80;;;1.17;;
67053;SDS011;53960;51.826;5.850;2023-01-09T02:11:16;5.50;;;1.70;;
67053;SDS011;53960;51.826;5.850;2023-01-09T02:13:43;4.72;;;1.05;;
67053;SDS011;53960;51.826;5.850;2023-01-09T02:24:07;6.03;;;1.20;;
67053;SDS011;53960;51.826;5.850;2023-01-09T02:27:40;5.70;;;1.20;;
67053;SDS011;53960;51.826;5.850;2023-01-09T02:32:44;5.00;;;1.02;;
67053;SDS011;53960;51.826;5.850;2023-01-09T02:35:44;5.70;;;1.13;;
67053;SDS011;53960;51.826;5.850;2023-01-09T02:43:30;6.82;;;1.15;;
67053;SDS011;53960;51.826;5.850;2023-01-09T02:45:56;7.13;;;1.45;;
67053;SDS011;53960;51.826;5.850;2023-01-09T02:48:21;6.93;;;1.47;;
67053;SDS011;53960;51.826;5.850;2023-01-09T02:50:50;6.10;;;1.40;;
67053;SDS011;53960;51.826;5.850;2023-01-09T02:54:10;8.77;;;1.38;;
67053;SDS011;53960;51.826;5.850;2023-01-09T03:07:25;7.80;;;1.40;;
67053;SDS011;53960;51.826;5.850;2023-01-09T03:10:09;5.75;;;1.20;;
67053;SDS011;53960;51.826;5.850;2023-01-09T03:12:43;6.05;;;1.20;;
67053;SDS011;53960;51.826;5.850;2023-01-09T03:15:11;7.77;;;1.30;;
67053;SDS011;53960;51.826;5.850;2023-01-09T03:17:39;6.63;;;1.25;;
67053;SDS011;53960;51.826;5.850;2023-01-09T03:20:08;6.43;;;1.27;;
67053;SDS011;53960;51.826;5.850;2023-01-09T03:22:37;8.38;;;1.63;;
67053;SDS011;53960;51.826;5.850;2023-01-09T03:25:04;7.63;;;1.50;;
67053;SDS011;53960;51.826;5.850;2023-01-09T03:27:29;6.80;;;1.33;;
67053;SDS011;53960;51.826;5.850;2023-01-09T03:29:55;5.70;;;1.60;;
67053;SDS011;53960;51.826;5.850;2023-01-09T03:32:20;7.55;;;1.40;;
67053;SDS011;53960;51.826;5.850;2023-01-09T03:34:45;7.27;;;1.30;;
67053;SDS011;53960;51.826;5.850;2023-01-09T03:37:11;6.20;;;1.90;;
67053;SDS011;53960;51.826;5.850;2023-01-09T03:39:36;8.10;;;1.53;;
67053;SDS011;53960;51.826;5.850;2023-01-09T03:42:01;8.93;;;1.97;;
67053;SDS011;53960;51.826;5.850;2023-01-09T03:44:27;5.60;;;1.27;;
67053;SDS011;53960;51.826;5.850;2023-01-09T03:46:52;6.15;;;1.42;;
67053;SDS011;53960;51.826;5.850;2023-01-09T03:49:18;6.60;;;1.47;;
67053;SDS011;53960;51.826;5.850;2023-01-09T03:51:43;7.07;;;1.50;;
67053;SDS011;53960;51.826;5.850;2023-01-09T03:54:08;7.50;;;1.50;;
67053;SDS011;53960;51.826;5.850;2023-01-09T03:56:34;5.43;;;1.30;;
67053;SDS011;53960;51.826;5.850;2023-01-09T03:58:59;8.20;;;2.20;;
67053;SDS011;53960;51.826;5.850;2023-01-09T04:01:24;7.25;;;1.52;;
67053;SDS011;53960;51.826;5.850;2023-01-09T04:03:50;6.17;;;1.70;;
67053;SDS011;53960;51.826;5.850;2023-01-09T04:06:15;10.03;;;1.63;;
67053;SDS011;53960;51.826;5.850;2023-01-09T04:08:40;7.10;;;1.60;;
67053;SDS011;53960;51.826;5.850;2023-01-09T04:11:06;9.53;;;1.77;;
67053;SDS011;53960;51.826;5.850;2023-01-09T04:13:31;7.33;;;1.97;;
67053;SDS011;53960;51.826;5.850;2023-01-09T04:15:56;8.43;;;1.53;;
67053;SDS011;53960;51.826;5.850;2023-01-09T04:18:22;11.00;;;2.00;;
67053;SDS011;53960;51.826;5.850;2023-01-09T04:20:47;12.23;;;1.83;;
67053;SDS011;53960;51.826;5.850;2023-01-09T04:23:13;10.67;;;2.07;;
67053;SDS011;53960;51.826;5.850;2023-01-09T04:25:38;7.87;;;1.67;;
67053;SDS011;53960;51.826;5.850;2023-01-09T04:28:04;10.15;;;2.30;;
67053;SDS011;53960;51.826;5.850;2023-01-09T04:30:29;8.80;;;2.17;;
67053;SDS011;53960;51.826;5.850;2023-01-09T04:32:54;8.20;;;2.03;;
67053;SDS011;53960;51.826;5.850;2023-01-09T04:35:20;8.63;;;2.17;;
67053;SDS011;53960;51.826;5.850;2023-01-09T04:37:45;8.40;;;2.03;;
67053;SDS011;53960;51.826;5.850;2023-01-09T04:40:11;10.57;;;1.70;;
67053;SDS011;53960;51.826;5.850;2023-01-09T04:42:37;6.65;;;1.65;;
67053;SDS011;53960;51.826;5.850;2023-01-09T04:45:03;9.40;;;1.60;;
67053;SDS011;53960;51.826;5.850;2023-01-09T04:47:30;9.18;;;1.85;;
67053;SDS011;53960;51.826;5.850;2023-01-09T04:49:56;6.40;;;1.60;;
67053;SDS011;53960;51.826;5.850;2023-01-09T04:52:22;9.30;;;1.50;;
67053;SDS011;53960;51.826;5.850;2023-01-09T04:54:47;10.30;;;1.60;;
67053;SDS011;53960;51.826;5.850;2023-01-09T04:57:13;8.00;;;1.80;;
67053;SDS011;53960;51.826;5.850;2023-01-09T04:59:38;6.37;;;1.40;;
67053;SDS011;53960;51.826;5.850;2023-01-09T05:02:03;8.57;;;1.70;;
67053;SDS011;53960;51.826;5.850;2023-01-09T05:04:29;7.50;;;1.80;;
67053;SDS011;53960;51.826;5.850;2023-01-09T05:06:54;7.07;;;1.50;;
67053;SDS011;53960;51.826;5.850;2023-01-09T05:09:19;8.88;;;1.40;;
67053;SDS011;53960;51.826;5.850;2023-01-09T05:11:46;7.63;;;1.50;;
67053;SDS011;53960;51.826;5.850;2023-01-09T05:14:11;6.83;;;1.50;;
67053;SDS011;53960;51.826;5.850;2023-01-09T05:16:36;6.80;;;1.53;;
67053;SDS011;53960;51.826;5.850;2023-01-09T05:19:02;8.47;;;1.53;;
67053;SDS011;53960;51.826;5.850;2023-01-09T05:21:27;6.60;;;1.60;;
67053;SDS011;53960;51.826;5.850;2023-01-09T05:23:53;9.00;;;1.30;;
67053;SDS011;53960;51.826;5.850;2023-01-09T05:26:19;8.73;;;1.63;;
67053;SDS011;53960;51.826;5.850;2023-01-09T05:28:49;7.97;;;1.63;;
67053;SDS011;53960;51.826;5.850;2023-01-09T05:31:18;9.93;;;1.93;;
67053;SDS011;53960;51.826;5.850;2023-01-09T05:33:43;9.73;;;1.65;;
67053;SDS011;53960;51.826;5.850;2023-01-09T05:36:09;13.13;;;2.03;;
67053;SDS011;53960;51.826;5.850;2023-01-09T05:38:34;6.85;;;1.70;;
67053;SDS011;53960;51.826;5.850;2023-01-09T05:40:59;7.80;;;1.80;;
67053;SDS011;53960;51.826;5.850;2023-01-09T05:43:25;8.50;;;1.80;;
67053;SDS011;53960;51.826;5.850;2023-01-09T05:45:50;8.47;;;1.63;;
67053;SDS011;53960;51.826;5.850;2023-01-09T05:48:16;6.80;;;1.40;;
67053;SDS011;53960;51.826;5.850;2023-01-09T05:50:41;8.07;;;1.27;;
67053;SDS011;53960;51.826;5.850;2023-01-09T05:53:06;8.48;;;1.40;;
67053;SDS011;53960;51.826;5.850;2023-01-09T05:55:32;8.13;;;1.80;;
67053;SDS011;53960;51.826;5.850;2023-01-09T05:57:57;7.33;;;1.47;;
67053;SDS011;53960;51.826;5.850;2023-01-09T06:00:23;7.65;;;1.60;;
67053;SDS011;53960;51.826;5.850;2023-01-09T06:02:48;6.33;;;1.50;;
67053;SDS011;53960;51.826;5.850;2023-01-09T06:05:14;10.93;;;1.53;;
67053;SDS011;53960;51.826;5.850;2023-01-09T06:07:39;10.10;;;1.70;;
67053;SDS011;53960;51.826;5.850;2023-01-09T06:10:09;7.55;;;1.40;;
67053;SDS011;53960;51.826;5.850;2023-01-09T06:12:36;7.95;;;1.30;;
67053;SDS011;53960;51.826;5.850;2023-01-09T06:15:02;7.53;;;1.33;;
67053;SDS011;53960;51.826;5.850;2023-01-09T06:17:27;7.70;;;1.48;;
67053;SDS011;53960;51.826;5.850;2023-01-09T06:19:53;6.97;;;1.47;;
67053;SDS011;53960;51.826;5.850;2023-01-09T06:22:18;6.60;;;1.50;;
67053;SDS011;53960;51.826;5.850;2023-01-09T06:24:44;7.97;;;1.70;;
67053;SDS011;53960;51.826;5.850;2023-01-09T06:27:09;7.93;;;1.30;;
67053;SDS011;53960;51.826;5.850;2023-01-09T06:29:36;9.50;;;1.33;;
67053;SDS011;53960;51.826;5.850;2023-01-09T06:32:01;10.40;;;1.40;;
67053;SDS011;53960;51.826;5.850;2023-01-09T06:34:27;7.50;;;1.33;;
67053;SDS011;53960;51.826;5.850;2023-01-09T06:36:52;6.40;;;1.20;;
67053;SDS011;53960;51.826;5.850;2023-01-09T06:39:17;6.80;;;1.40;;
67053;SDS011;53960;51.826;5.850;2023-01-09T06:41:43;7.60;;;1.70;;
67053;SDS011;53960;51.826;5.850;2023-01-09T06:44:09;10.15;;;1.58;;
67053;SDS011;53960;51.826;5.850;2023-01-09T06:46:34;11.40;;;1.50;;
67053;SDS011;53960;51.826;5.850;2023-01-09T06:49:00;8.23;;;1.33;;
67053;SDS011;53960;51.826;5.850;2023-01-09T06:51:25;8.50;;;1.80;;
67053;SDS011;53960;51.826;5.850;2023-01-09T06:53:50;9.57;;;1.80;;
67053;SDS011;53960;51.826;5.850;2023-01-09T06:56:15;8.67;;;1.60;;
67053;SDS011;53960;51.826;5.850;2023-01-09T06:58:41;8.77;;;1.60;;
67053;SDS011;53960;51.826;5.850;2023-01-09T07:01:06;6.63;;;1.50;;
67053;SDS011;53960;51.826;5.850;2023-01-09T07:03:32;10.53;;;1.70;;
67053;SDS011;53960;51.826;5.850;2023-01-09T07:05:57;8.57;;;1.30;;
67053;SDS011;53960;51.826;5.850;2023-01-09T07:08:23;10.45;;;1.80;;
67053;SDS011;53960;51.826;5.850;2023-01-09T07:10:48;7.27;;;1.30;;
67053;SDS011;53960;51.826;5.850;2023-01-09T07:13:13;9.93;;;2.37;;
67053;SDS011;53960;51.826;5.850;2023-01-09T07:15:39;8.63;;;1.77;;
67053;SDS011;53960;51.826;5.850;2023-01-09T07:18:04;9.53;;;1.50;;
67053;SDS011;53960;51.826;5.850;2023-01-09T07:20:29;7.83;;;1.60;;
67053;SDS011;53960;51.826;5.850;2023-01-09T07:22:55;9.87;;;1.80;;
67053;SDS011;53960;51.826;5.850;2023-01-09T07:25:21;7.68;;;1.35;;
67053;SDS011;53960;51.826;5.850;2023-01-09T07:27:46;10.80;;;1.97;;
67053;SDS011;53960;51.826;5.850;2023-01-09T07:30:11;11.87;;;1.73;;
67053;SDS011;53960;51.826;5.850;2023-01-09T07:32:37;8.60;;;1.65;;
67053;SDS011;53960;51.826;5.850;2023-01-09T07:35:05;9.43;;;1.75;;
67053;SDS011;53960;51.826;5.850;2023-01-09T07:37:31;10.93;;;1.73;;
67053;SDS011;53960;51.826;5.850;2023-01-09T07:39:57;9.33;;;1.50;;
67053;SDS011;53960;51.826;5.850;2023-01-09T07:42:22;11.03;;;1.60;;
67053;SDS011;53960;51.826;5.850;2023-01-09T07:44:47;12.00;;;2.50;;
67053;SDS011;53960;51.826;5.850;2023-01-09T07:47:12;8.13;;;1.70;;
67053;SDS011;53960;51.826;5.850;2023-01-09T07:49:38;8.17;;;1.93;;
67053;SDS011;53960;51.826;5.850;2023-01-09T07:52:03;7.70;;;1.75;;
67053;SDS011;53960;51.826;5.850;2023-01-09T07:54:29;9.17;;;2.03;;
67053;SDS011;53960;51.826;5.850;2023-01-09T07:56:54;11.73;;;2.43;;
67053;SDS011;53960;51.826;5.850;2023-01-09T07:59:20;8.48;;;1.90;;
67053;SDS011;53960;51.826;5.850;2023-01-09T08:01:45;8.90;;;2.03;;
67053;SDS011;53960;51.826;5.850;2023-01-09T08:04:11;8.47;;;1.90;;
67053;SDS011;53960;51.826;5.850;2023-01-09T08:06:36;8.40;;;1.63;;
67053;SDS011;53960;51.826;5.850;2023-01-09T08:09:02;8.80;;;1.58;;
67053;SDS011;53960;51.826;5.850;2023-01-09T08:11:27;9.47;;;1.77;;
67053;SDS011;53960;51.826;5.850;2023-01-09T08:13:52;6.30;;;1.57;;
67053;SDS011;53960;51.826;5.850;2023-01-09T08:16:18;8.53;;;1.70;;
67053;SDS011;53960;51.826;5.850;2023-01-09T08:18:43;7.22;;;1.67;;
67053;SDS011;53960;51.826;5.850;2023-01-09T08:21:09;9.70;;;1.80;;
67053;SDS011;53960;51.826;5.850;2023-01-09T08:23:38;8.70;;;2.58;;
67053;SDS011;53960;51.826;5.850;2023-01-09T08:26:03;7.50;;;1.90;;
67053;SDS011;53960;51.826;5.850;2023-01-09T08:28:29;7.47;;;2.20;;
67053;SDS011;53960;51.826;5.850;2023-01-09T08:30:55;9.73;;;1.80;;
67053;SDS011;53960;51.826;5.850;2023-01-09T08:33:21;10.30;;;2.00;;
67053;SDS011;53960;51.826;5.850;2023-01-09T08:35:46;8.87;;;2.10;;
67053;SDS011;53960;51.826;5.850;2023-01-09T08:38:12;8.63;;;2.20;;
67053;SDS011;53960;51.826;5.850;2023-01-09T08:40:37;8.53;;;2.17;;
67053;SDS011;53960;51.826;5.850;2023-01-09T08:43:02;9.27;;;2.27;;
67053;SDS011;53960;51.826;5.850;2023-01-09T08:45:47;8.70;;;2.45;;
67053;SDS011;53960;51.826;5.850;2023-01-09T08:48:31;8.00;;;2.13;;
67053;SDS011;53960;51.826;5.850;2023-01-09T08:50:56;9.20;;;2.50;;
67053;SDS011;53960;51.826;5.850;2023-01-09T08:53:21;9.73;;;2.70;;
67053;SDS011;53960;51.826;5.850;2023-01-09T08:55:47;7.30;;;2.40;;
67053;SDS011;53960;51.826;5.850;2023-01-09T08:58:12;11.10;;;2.35;;
67053;SDS011;53960;51.826;5.850;2023-01-09T09:00:38;11.30;;;2.63;;
67053;SDS011;53960;51.826;5.850;2023-01-09T09:03:03;8.00;;;2.73;;
67053;SDS011;53960;51.826;5.850;2023-01-09T09:05:29;8.67;;;2.70;;
67053;SDS011;53960;51.826;5.850;2023-01-09T09:07:55;9.20;;;2.47;;
67053;SDS011;53960;51.826;5.850;2023-01-09T09:10:21;7.40;;;2.70;;
67053;SDS011;53960;51.826;5.850;2023-01-09T09:12:49;10.67;;;3.17;;
67053;SDS011;53960;51.826;5.850;2023-01-09T09:15:16;9.93;;;2.65;;
67053;SDS011;53960;51.826;5.850;2023-01-09T09:17:51;9.45;;;2.80;;
67053;SDS011;53960;51.826;5.850;2023-01-09T09:20:19;10.95;;;3.15;;
67053;SDS011;53960;51.826;5.850;2023-01-09T09:22:45;9.80;;;2.90;;
67053;SDS011;53960;51.826;5.850;2023-01-09T09:25:12;9.20;;;2.47;;
67053;SDS011;53960;51.826;5.850;2023-01-09T09:27:38;8.30;;;2.67;;
67053;SDS011;53960;51.826;5.850;2023-01-09T09:30:04;9.38;;;2.58;;
67053;SDS011;53960;51.826;5.850;2023-01-09T09:32:30;8.57;;;2.30;;
67053;SDS011;53960;51.826;5.850;2023-01-09T09:34:56;8.25;;;2.70;;
67053;SDS011;53960;51.826;5.850;2023-01-09T09:37:21;7.97;;;2.37;;
67053;SDS011;53960;51.826;5.850;2023-01-09T09:39:47;6.97;;;2.30;;
67053;SDS011;53960;51.826;5.850;2023-01-09T09:45:36;7.50;;;2.43;;
67053;SDS011;53960;51.826;5.850;2023-01-09T09:53:37;10.63;;;2.70;;
67053;SDS011;53960;51.826;5.850;2023-01-09T09:56:12;7.18;;;2.50;;
67053;SDS011;53960;51.826;5.850;2023-01-09T09:58:40;9.13;;;3.20;;
67053;SDS011;53960;51.826;5.850;2023-01-09T10:01:10;8.80;;;2.92;;
67053;SDS011;53960;51.826;5.850;2023-01-09T10:03:46;9.55;;;3.50;;
67053;SDS011;53960;51.826;5.850;2023-01-09T10:06:15;10.95;;;2.90;;
67053;SDS011;53960;51.826;5.850;2023-01-09T10:11:28;9.80;;;3.53;;
67053;SDS011;53960;51.826;5.850;2023-01-09T10:13:59;10.15;;;3.33;;
67053;SDS011;53960;51.826;5.850;2023-01-09T10:24:40;8.57;;;3.20;;
67053;SDS011;53960;51.826;5.850;2023-01-09T10:29:49;9.18;;;2.92;;
67053;SDS011;53960;51.826;5.850;2023-01-09T10:37:37;9.93;;;3.47;;
67053;SDS011;53960;51.826;5.850;2023-01-09T10:42:47;11.70;;;3.42;;
67053;SDS011;53960;51.826;5.850;2023-01-09T10:45:24;10.10;;;3.78;;
67053;SDS011;53960;51.826;5.850;2023-01-09T10:47:57;8.52;;;3.25;;
67053;SDS011;53960;51.826;5.850;2023-01-09T10:50:34;11.17;;;3.10;;
67053;SDS011;53960;51.826;5.850;2023-01-09T10:53:06;9.13;;;3.40;;
67053;SDS011;53960;51.826;5.850;2023-01-09T10:55:43;12.70;;;4.10;;
67053;SDS011;53960;51.826;5.850;2023-01-09T10:58:15;10.73;;;4.43;;
67053;SDS011;53960;51.826;5.850;2023-01-09T11:00:41;11.50;;;4.10;;
67053;SDS011;53960;51.826;5.850;2023-01-09T11:03:12;10.30;;;3.57;;
67053;SDS011;53960;51.826;5.850;2023-01-09T11:05:40;12.20;;;4.30;;
67053;SDS011;53960;51.826;5.850;2023-01-09T11:10:48;12.20;;;4.32;;
67053;SDS011;53960;51.826;5.850;2023-01-09T11:13:50;10.40;;;4.33;;
67053;SDS011;53960;51.826;5.850;2023-01-09T11:16:16;12.93;;;5.03;;
67053;SDS011;53960;51.826;5.850;2023-01-09T11:18:48;13.27;;;4.55;;
67053;SDS011;53960;51.826;5.850;2023-01-09T11:23:57;13.63;;;4.22;;
67053;SDS011;53960;51.826;5.850;2023-01-09T11:26:51;9.67;;;2.83;;
67053;SDS011;53960;51.826;5.850;2023-01-09T11:29:19;9.65;;;3.30;;
67053;SDS011;53960;51.826;5.850;2023-01-09T11:31:50;10.57;;;3.33;;
67053;SDS011;53960;51.826;5.850;2023-01-09T11:34:18;8.65;;;2.90;;
67053;SDS011;53960;51.826;5.850;2023-01-09T11:36:46;11.15;;;3.03;;
67053;SDS011;53960;51.826;5.850;2023-01-09T11:39:22;10.60;;;2.20;;
67053;SDS011;53960;51.826;5.850;2023-01-09T11:41:53;8.32;;;2.20;;
67053;SDS011;53960;51.826;5.850;2023-01-09T11:44:21;9.27;;;2.63;;
67053;SDS011;53960;51.826;5.850;2023-01-09T11:46:47;8.40;;;2.22;;
67053;SDS011;53960;51.826;5.850;2023-01-09T11:51:46;8.98;;;2.25;;
67053;SDS011;53960;51.826;5.850;2023-01-09T11:54:35;9.43;;;2.65;;
67053;SDS011;53960;51.826;5.850;2023-01-09T11:57:04;9.27;;;2.07;;
67053;SDS011;53960;51.826;5.850;2023-01-09T11:59:33;9.32;;;2.17;;
67053;SDS011;53960;51.826;5.850;2023-01-09T12:04:55;10.98;;;2.40;;
67053;SDS011;53960;51.826;5.850;2023-01-09T12:07:47;9.15;;;2.85;;
67053;SDS011;53960;51.826;5.850;2023-01-09T12:10:40;10.98;;;2.80;;
67053;SDS011;53960;51.826;5.850;2023-01-09T12:13:17;10.43;;;2.63;;
67053;SDS011;53960;51.826;5.850;2023-01-09T12:18:56;10.55;;;2.67;;
67053;SDS011;53960;51.826;5.850;2023-01-09T12:24:16;9.68;;;2.80;;
67053;SDS011;53960;51.826;5.850;2023-01-09T12:30:00;10.80;;;2.80;;
67053;SDS011;53960;51.826;5.850;2023-01-09T12:33:06;9.75;;;2.80;;
67053;SDS011;53960;51.826;5.850;2023-01-09T12:36:02;10.80;;;2.78;;
67053;SDS011;53960;51.826;5.850;2023-01-09T12:41:02;8.73;;;2.50;;
67053;SDS011;53960;51.826;5.850;2023-01-09T12:46:20;10.57;;;2.00;;
67053;SDS011;53960;51.826;5.850;2023-01-09T12:51:46;9.30;;;2.33;;
67053;SDS011;53960;51.826;5.850;2023-01-09T12:57:20;6.90;;;1.47;;
67053;SDS011;53960;51.826;5.850;2023-01-09T12:59:57;8.27;;;1.40;;
67053;SDS011;53960;51.826;5.850;2023-01-09T13:02:28;7.13;;;1.52;;
67053;SDS011;53960;51.826;5.850;2023-01-09T13:05:02;10.00;;;1.75;;
67053;SDS011;53960;51.826;5.850;2023-01-09T13:07:41;10.88;;;1.98;;
67053;SDS011;53960;51.826;5.850;2023-01-09T13:10:15;7.83;;;1.93;;
67053;SDS011;53960;51.826;5.850;2023-01-09T13:12:46;10.15;;;2.30;;
67053;SDS011;53960;51.826;5.850;2023-01-09T13:17:59;10.77;;;3.10;;
67053;SDS011;53960;51.826;5.850;2023-01-09T13:23:14;10.83;;;3.10;;
67053;SDS011;53960;51.826;5.850;2023-01-09T13:26:01;11.90;;;2.80;;
67053;SDS011;53960;51.826;5.850;2023-01-09T13:28:38;11.70;;;2.85;;
67053;SDS011;53960;51.826;5.850;2023-01-09T13:33:43;8.27;;;2.05;;
67053;SDS011;53960;51.826;5.850;2023-01-09T13:36:24;10.53;;;2.63;;
67053;SDS011;53960;51.826;5.850;2023-01-09T13:38:56;12.23;;;2.55;;
67053;SDS011;53960;51.826;5.850;2023-01-09T13:41:23;12.68;;;2.50;;
67053;SDS011;53960;51.826;5.850;2023-01-09T13:44:18;9.23;;;2.10;;
67053;SDS011;53960;51.826;5.850;2023-01-09T13:46:48;8.32;;;2.00;;
67053;SDS011;53960;51.826;5.850;2023-01-09T13:59:47;5.43;;;1.30;;
67053;SDS011;53960;51.826;5.850;2023-01-09T14:04:59;5.60;;;0.87;;
67053;SDS011;53960;51.826;5.850;2023-01-09T14:07:42;5.95;;;1.13;;
67053;SDS011;53960;51.826;5.850;2023-01-09T14:10:34;5.82;;;1.13;;
67053;SDS011;53960;51.826;5.850;2023-01-09T14:12:59;6.80;;;1.15;;
67053;SDS011;53960;51.826;5.850;2023-01-09T14:15:36;7.22;;;1.33;;
67053;SDS011;53960;51.826;5.850;2023-01-09T14:18:05;8.10;;;1.67;;
67053;SDS011;53960;51.826;5.850;2023-01-09T14:20:53;7.05;;;1.30;;
67053;SDS011;53960;51.826;5.850;2023-01-09T14:23:22;8.77;;;1.90;;
67053;SDS011;53960;51.826;5.850;2023-01-09T14:25:49;9.50;;;2.05;;
67053;SDS011;53960;51.826;5.850;2023-01-09T14:28:20;7.78;;;1.90;;
67053;SDS011;53960;51.826;5.850;2023-01-09T14:36:24;10.10;;;2.63;;
67053;SDS011;53960;51.826;5.850;2023-01-09T14:38:44;9.07;;;3.17;;
67053;SDS011;53960;51.826;5.850;2023-01-09T14:41:23;9.25;;;2.40;;
67053;SDS011;53960;51.826;5.850;2023-01-09T14:46:55;7.83;;;2.10;;
67053;SDS011;53960;51.826;5.850;2023-01-09T14:49:39;8.60;;;2.20;;
67053;SDS011;53960;51.826;5.850;2023-01-09T14:52:11;7.70;;;2.20;;
67053;SDS011;53960;51.826;5.850;2023-01-09T14:54:42;10.27;;;2.85;;
67053;SDS011;53960;51.826;5.850;2023-01-09T14:57:30;9.03;;;2.50;;
67053;SDS011;53960;51.826;5.850;2023-01-09T15:00:05;9.30;;;2.30;;
67053;SDS011;53960;51.826;5.850;2023-01-09T15:02:40;9.35;;;2.25;;
67053;SDS011;53960;51.826;5.850;2023-01-09T15:05:08;11.55;;;2.75;;
67053;SDS011;53960;51.826;5.850;2023-01-09T15:07:38;6.88;;;2.05;;
67053;SDS011;53960;51.826;5.850;2023-01-09T15:10:18;8.63;;;2.10;;
67053;SDS011;53960;51.826;5.850;2023-01-09T15:12:49;13.23;;;2.40;;
67053;SDS011;53960;51.826;5.850;2023-01-09T15:15:17;10.95;;;2.15;;
67053;SDS011;53960;51.826;5.850;2023-01-09T15:17:45;7.88;;;2.03;;
67053;SDS011;53960;51.826;5.850;2023-01-09T15:20:28;8.93;;;2.05;;
67053;SDS011;53960;51.826;5.850;2023-01-09T15:22:55;11.23;;;2.20;;
67053;SDS011;53960;51.826;5.850;2023-01-09T15:25:25;8.88;;;2.50;;
67053;SDS011;53960;51.826;5.850;2023-01-09T15:27:54;10.90;;;2.22;;
67053;SDS011;53960;51.826;5.850;2023-01-09T15:30:30;9.32;;;2.05;;
67053;SDS011;53960;51.826;5.850;2023-01-09T15:33:02;11.88;;;2.65;;
67053;SDS011;53960;51.826;5.850;2023-01-09T15:35:29;10.37;;;2.53;;
67053;SDS011;53960;51.826;5.850;2023-01-09T15:37:55;12.23;;;2.60;;
67053;SDS011;53960;51.826;5.850;2023-01-09T15:40:23;9.98;;;2.95;;
67053;SDS011;53960;51.826;5.850;2023-01-09T15:42:52;13.32;;;3.05;;
67053;SDS011;53960;51.826;5.850;2023-01-09T15:45:38;16.77;;;2.97;;
67053;SDS011;53960;51.826;5.850;2023-01-09T15:51:07;8.77;;;2.45;;
67053;SDS011;53960;51.826;5.850;2023-01-09T15:53:35;9.93;;;2.50;;
67053;SDS011;53960;51.826;5.850;2023-01-09T15:56:17;12.10;;;3.20;;
67053;SDS011;53960;51.826;5.850;2023-01-09T15:58:51;9.73;;;2.17;;
67053;SDS011;53960;51.826;5.850;2023-01-09T16:01:27;10.38;;;2.10;;
67053;SDS011;53960;51.826;5.850;2023-01-09T16:04:06;9.05;;;2.20;;
67053;SDS011;53960;51.826;5.850;2023-01-09T16:06:43;10.50;;;2.60;;
67053;SDS011;53960;51.826;5.850;2023-01-09T16:09:16;12.30;;;3.00;;
67053;SDS011;53960;51.826;5.850;2023-01-09T16:11:46;12.65;;;3.20;;
67053;SDS011;53960;51.826;5.850;2023-01-09T16:16:51;12.52;;;3.40;;
67053;SDS011;53960;51.826;5.850;2023-01-09T16:22:22;9.43;;;2.72;;
67053;SDS011;53960;51.826;5.850;2023-01-09T16:24:50;13.68;;;3.08;;
67053;SDS011;53960;51.826;5.850;2023-01-09T16:27:20;11.95;;;3.58;;
67053;SDS011;53960;51.826;5.850;2023-01-09T16:29:58;10.55;;;3.15;;
67053;SDS011;53960;51.826;5.850;2023-01-09T16:32:29;11.67;;;2.67;;
67053;SDS011;53960;51.826;5.850;2023-01-09T16:34:58;12.18;;;3.10;;
67053;SDS011;53960;51.826;5.850;2023-01-09T16:37:25;12.35;;;3.90;;
67053;SDS011;53960;51.826;5.850;2023-01-09T16:42:28;13.68;;;4.13;;
67053;SDS011;53960;51.826;5.850;2023-01-09T16:45:12;12.27;;;3.17;;
67053;SDS011;53960;51.826;5.850;2023-01-09T16:47:38;12.25;;;2.90;;
67053;SDS011;53960;51.826;5.850;2023-01-09T16:50:03;12.87;;;3.00;;
67053;SDS011;53960;51.826;5.850;2023-01-09T16:52:29;10.67;;;2.20;;
67053;SDS011;53960;51.826;5.850;2023-01-09T16:54:54;14.07;;;3.03;;
67053;SDS011;53960;51.826;5.850;2023-01-09T16:57:19;12.47;;;3.07;;
67053;SDS011;53960;51.826;5.850;2023-01-09T16:59:45;13.55;;;2.83;;
67053;SDS011;53960;51.826;5.850;2023-01-09T17:02:15;12.90;;;3.10;;
67053;SDS011;53960;51.826;5.850;2023-01-09T17:04:42;15.77;;;3.10;;
67053;SDS011;53960;51.826;5.850;2023-01-09T17:07:09;12.17;;;2.80;;